createdAt,value
2018-07-02T00:01:42.440Z,29.27
2018-07-02T00:03:47.667Z,28.63
2018-07-02T00:06:09.774Z,29.61
2018-07-02T00:08:15.104Z,28.62
2018-07-02T00:10:20.459Z,29.54
2018-07-02T00:12:26.074Z,29.49
2018-07-02T00:14:31.610Z,28.62
2018-07-02T00:16:36.948Z,29.22
2018-07-02T00:18:42.266Z,29.77
2018-07-02T00:20:47.549Z,29.89
2018-07-02T00:22:52.860Z,29.22
2018-07-02T00:24:58.167Z,29.09
2018-07-02T00:27:03.427Z,30.00
2018-07-02T00:29:08.754Z,29.90
2018-07-02T00:31:14.059Z,29.32
2018-07-02T00:33:19.424Z,29.43
2018-07-02T00:35:24.690Z,30.00
2018-07-02T00:37:30.010Z,30.22
2018-07-02T00:39:35.327Z,29.99
2018-07-02T00:41:41.211Z,29.62
2018-07-02T00:43:46.503Z,29.54
2018-07-02T00:45:51.775Z,30.38
2018-07-02T00:47:57.129Z,30.61
2018-07-02T00:50:02.463Z,30.55
2018-07-02T00:52:07.926Z,30.52
2018-07-02T00:54:13.359Z,29.88
2018-07-02T00:56:18.652Z,30.06
2018-07-02T00:58:24.018Z,29.98
2018-07-02T01:00:29.308Z,30.67
2018-07-02T01:02:34.691Z,30.60
2018-07-02T01:04:40.010Z,30.00
2018-07-02T01:06:45.388Z,30.85
2018-07-02T01:08:50.768Z,30.00
2018-07-02T01:13:00.175Z,30.00
2018-07-02T01:15:05.716Z,31.06
2018-07-02T01:17:11.018Z,30.17
2018-07-02T01:19:16.309Z,30.97
2018-07-02T01:21:21.592Z,30.69
2018-07-02T01:23:26.870Z,29.92
2018-07-02T01:25:32.175Z,31.01
2018-07-02T01:27:37.466Z,30.53
2018-07-02T01:29:42.779Z,30.28
2018-07-02T01:31:48.105Z,30.67
2018-07-02T01:33:53.041Z,31.06
2018-07-02T01:35:58.446Z,31.23
2018-07-02T01:38:03.800Z,30.73
2018-07-02T01:40:08.799Z,31.19
2018-07-02T01:42:14.060Z,30.73
2018-07-02T01:44:19.385Z,30.49
2018-07-02T01:46:24.707Z,30.40
2018-07-02T01:48:29.996Z,30.97
2018-07-02T01:50:35.252Z,31.01
2018-07-02T01:52:40.556Z,30.58
2018-07-02T01:54:45.928Z,30.94
2018-07-02T01:56:51.581Z,30.92
2018-07-02T01:58:56.900Z,31.52
2018-07-02T02:01:02.204Z,31.33
2018-07-02T02:03:07.544Z,31.47
2018-07-02T02:05:12.837Z,31.26
2018-07-02T02:07:18.155Z,30.78
2018-07-02T02:09:23.488Z,30.80
2018-07-02T02:11:28.782Z,31.53
2018-07-02T02:13:34.094Z,31.23
2018-07-02T02:15:39.366Z,30.88
2018-07-02T02:17:44.675Z,31.47
2018-07-02T02:19:49.986Z,31.44
2018-07-02T02:21:55.271Z,31.24
2018-07-02T02:24:00.888Z,31.51
2018-07-02T02:26:06.606Z,31.57
2018-07-02T02:28:11.905Z,31.76
2018-07-02T02:30:17.254Z,31.70
2018-07-02T02:32:22.555Z,31.74
2018-07-02T02:34:27.819Z,31.79
2018-07-02T02:36:33.140Z,31.76
2018-07-02T02:38:38.452Z,31.88
2018-07-02T02:40:43.777Z,31.06
2018-07-02T02:42:49.051Z,31.56
2018-07-02T02:44:54.360Z,31.91
2018-07-02T02:47:00.416Z,32.01
2018-07-02T02:49:06.098Z,31.41
2018-07-02T02:51:11.464Z,31.41
2018-07-02T02:53:16.734Z,32.06
2018-07-02T02:55:22.072Z,31.98
2018-07-02T02:57:27.140Z,31.52
2018-07-02T02:59:32.364Z,31.56
2018-07-02T03:01:37.664Z,31.28
2018-07-02T03:03:43.013Z,31.44
2018-07-02T03:05:48.371Z,31.48
2018-07-02T03:07:53.686Z,31.33
2018-07-02T03:09:58.964Z,31.42
2018-07-02T03:12:04.253Z,32.02
2018-07-02T03:14:09.262Z,32.13
2018-07-02T03:16:14.522Z,32.20
2018-07-02T03:18:19.836Z,31.54
2018-07-02T03:20:25.210Z,31.63
2018-07-02T03:22:30.484Z,32.22
2018-07-02T03:24:35.791Z,31.63
2018-07-02T03:26:41.207Z,32.33
2018-07-02T03:28:46.466Z,32.28
2018-07-02T03:30:51.770Z,31.88
2018-07-02T03:32:57.076Z,31.92
2018-07-02T03:35:02.364Z,32.48
2018-07-02T03:37:07.718Z,32.70
2018-07-02T03:39:13.548Z,32.25
2018-07-02T03:41:18.866Z,32.30
2018-07-02T03:43:24.246Z,32.63
2018-07-02T03:45:29.592Z,32.27
2018-07-02T03:47:34.924Z,32.49
2018-07-02T03:49:40.124Z,32.42
2018-07-02T03:51:45.035Z,32.47
2018-07-02T03:53:50.360Z,33.13
2018-07-02T03:55:56.573Z,32.88
2018-07-02T03:58:01.603Z,32.86
2018-07-02T04:00:06.916Z,32.68
2018-07-02T04:02:12.279Z,32.45
2018-07-02T04:04:17.574Z,33.22
2018-07-02T04:06:23.129Z,32.69
2018-07-02T04:08:28.527Z,33.01
2018-07-02T04:10:33.863Z,33.01
2018-07-02T04:12:39.235Z,33.21
2018-07-02T04:14:44.561Z,32.69
2018-07-02T04:16:49.874Z,32.91
2018-07-02T04:19:02.662Z,32.57
2018-07-02T04:21:07.971Z,32.66
2018-07-02T04:23:13.264Z,33.28
2018-07-02T04:25:18.606Z,32.91
2018-07-02T04:27:23.890Z,33.36
2018-07-02T04:29:29.227Z,33.04
2018-07-02T04:31:34.624Z,33.54
2018-07-02T04:33:40.046Z,33.17
2018-07-02T04:35:45.523Z,33.66
2018-07-02T04:37:51.177Z,33.58
2018-07-02T04:39:56.703Z,33.70
2018-07-02T04:42:02.085Z,33.99
2018-07-02T04:44:07.919Z,33.18
2018-07-02T04:46:19.900Z,33.80
2018-07-02T04:48:25.197Z,33.40
2018-07-02T04:50:30.962Z,33.76
2018-07-02T04:52:36.254Z,33.66
2018-07-02T04:54:42.198Z,34.00
2018-07-02T04:56:47.535Z,34.02
2018-07-02T04:58:52.854Z,34.04
2018-07-02T05:00:58.168Z,33.23
2018-07-02T05:03:03.509Z,33.89
2018-07-02T05:05:08.840Z,33.23
2018-07-02T05:07:14.161Z,33.39
2018-07-02T05:09:19.523Z,33.55
2018-07-02T05:11:24.846Z,33.43
2018-07-02T05:13:30.346Z,33.96
2018-07-02T05:15:35.645Z,33.99
2018-07-02T05:17:40.934Z,33.92
2018-07-02T05:19:46.245Z,34.23
2018-07-02T05:21:51.556Z,33.98
2018-07-02T05:23:56.883Z,34.13
2018-07-02T05:26:02.299Z,33.71
2018-07-02T05:28:07.581Z,34.25
2018-07-02T05:30:12.874Z,34.22
2018-07-02T05:32:18.173Z,34.06
2018-07-02T05:34:23.478Z,33.43
2018-07-02T05:36:28.819Z,33.49
2018-07-02T05:38:34.387Z,33.24
2018-07-02T05:40:39.677Z,33.86
2018-07-02T05:42:45.013Z,33.71
2018-07-02T05:44:50.339Z,33.60
2018-07-02T05:46:55.675Z,33.59
2018-07-02T05:49:01.174Z,33.36
2018-07-02T05:51:06.577Z,33.44
2018-07-02T05:53:11.627Z,33.36
2018-07-02T05:55:16.817Z,34.23
2018-07-02T05:57:22.146Z,33.85
2018-07-02T05:59:27.496Z,34.23
2018-07-02T06:01:32.817Z,33.79
2018-07-02T06:03:38.146Z,33.48
2018-07-02T06:05:43.489Z,34.26
2018-07-02T06:07:49.040Z,34.15
2018-07-02T06:09:54.373Z,33.32
2018-07-02T06:11:59.771Z,34.15
2018-07-02T06:14:05.605Z,33.38
2018-07-02T06:16:10.959Z,33.38
2018-07-02T06:18:15.952Z,34.12
2018-07-02T06:20:21.182Z,33.96
2018-07-02T06:22:26.549Z,32.57
2018-07-02T06:24:31.865Z,32.55
2018-07-02T06:26:37.199Z,32.36
2018-07-02T06:28:42.546Z,31.14
2018-07-02T06:30:47.946Z,30.06
2018-07-02T06:32:53.496Z,30.63
2018-07-02T06:34:58.843Z,29.82
2018-07-02T06:37:04.172Z,29.31
2018-07-02T06:39:11.046Z,29.57
2018-07-02T06:41:16.531Z,28.62
2018-07-02T06:43:21.968Z,28.08
2018-07-02T06:45:27.323Z,27.16
2018-07-02T06:47:32.770Z,27.13
2018-07-02T06:49:38.092Z,26.40
2018-07-02T06:51:43.503Z,26.64
2018-07-02T06:53:48.822Z,26.04
2018-07-02T06:55:54.163Z,24.28
2018-07-02T06:57:59.616Z,24.19
2018-07-02T07:00:06.447Z,24.53
2018-07-02T07:02:11.844Z,23.50
2018-07-02T07:04:17.140Z,23.57
2018-07-02T07:06:22.640Z,22.68
2018-07-02T07:08:27.974Z,22.39
2018-07-02T07:10:33.324Z,22.35
2018-07-02T07:12:38.644Z,22.30
2018-07-02T07:14:43.958Z,22.27
2018-07-02T07:16:49.319Z,21.65
2018-07-02T07:18:54.611Z,21.32
2018-07-02T07:20:59.916Z,21.29
2018-07-02T07:23:05.511Z,21.54
2018-07-02T07:25:10.783Z,21.56
2018-07-02T07:27:16.127Z,20.87
2018-07-02T07:29:21.476Z,21.05
2018-07-02T07:31:26.851Z,21.22
2018-07-02T07:33:32.352Z,20.76
2018-07-02T07:35:37.680Z,20.52
2018-07-02T07:37:43.064Z,20.51
2018-07-02T07:39:48.445Z,20.54
2018-07-02T07:41:53.796Z,20.29
2018-07-02T07:43:59.224Z,20.54
2018-07-02T07:46:05.599Z,20.61
2018-07-02T07:48:10.919Z,20.80
2018-07-02T07:50:16.352Z,21.68
2018-07-02T07:52:21.739Z,21.46
2018-07-02T07:54:27.078Z,21.60
2018-07-02T07:56:32.494Z,22.02
2018-07-02T07:58:37.828Z,21.94
2018-07-02T08:00:43.286Z,22.18
2018-07-02T08:02:48.885Z,22.89
2018-07-02T08:04:54.212Z,23.53
2018-07-02T08:06:59.602Z,23.66
2018-07-02T08:09:07.698Z,23.05
2018-07-02T08:11:13.177Z,22.94
2018-07-02T08:13:18.675Z,23.28
2018-07-02T08:15:24.010Z,24.07
2018-07-02T08:17:29.395Z,23.88
2018-07-02T08:19:34.776Z,23.95
2018-07-02T08:21:41.224Z,25.05
2018-07-02T08:23:46.564Z,24.43
2018-07-02T08:25:51.957Z,25.32
2018-07-02T08:27:57.327Z,25.09
2018-07-02T08:30:02.696Z,24.82
2018-07-02T08:32:08.069Z,25.43
2018-07-02T08:34:13.486Z,25.04
2018-07-02T08:36:19.358Z,25.91
2018-07-02T08:38:24.729Z,25.72
2018-07-02T08:40:30.102Z,25.79
2018-07-02T08:42:35.602Z,25.18
2018-07-02T08:44:41.037Z,25.20
2018-07-02T08:46:46.590Z,26.38
2018-07-02T08:48:52.036Z,26.41
2018-07-02T08:50:57.339Z,25.59
2018-07-02T08:53:02.750Z,25.57
2018-07-02T08:55:08.169Z,25.54
2018-07-02T08:57:13.459Z,26.70
2018-07-02T08:59:18.765Z,26.66
2018-07-02T09:01:24.142Z,25.72
2018-07-02T09:03:29.527Z,26.82
2018-07-02T09:05:35.131Z,26.54
2018-07-02T09:07:40.516Z,25.76
2018-07-02T09:09:45.684Z,26.73
2018-07-02T09:11:51.546Z,25.95
2018-07-02T09:13:56.877Z,26.21
2018-07-02T09:16:02.239Z,25.80
2018-07-02T09:18:07.576Z,26.05
2018-07-02T09:20:13.012Z,26.31
2018-07-02T09:22:18.463Z,26.46
2018-07-02T09:24:23.832Z,26.96
2018-07-02T09:26:29.233Z,26.74
2018-07-02T09:28:34.610Z,25.93
2018-07-02T09:30:39.980Z,26.84
2018-07-02T09:32:45.323Z,25.93
2018-07-02T09:34:50.638Z,26.57
2018-07-02T09:36:56.011Z,25.87
2018-07-02T09:39:01.335Z,25.72
2018-07-02T09:41:06.687Z,26.13
2018-07-02T09:43:12.044Z,25.33
2018-07-02T09:45:17.683Z,24.96
2018-07-02T09:47:23.038Z,25.39
2018-07-02T09:49:28.441Z,25.12
2018-07-02T09:51:34.115Z,25.14
2018-07-02T09:53:39.548Z,25.37
2018-07-02T09:55:44.910Z,26.13
2018-07-02T09:57:50.488Z,25.84
2018-07-02T09:59:55.965Z,26.02
2018-07-02T10:02:01.526Z,26.06
2018-07-02T10:04:06.855Z,26.17
2018-07-02T10:06:12.173Z,25.27
2018-07-02T10:08:17.640Z,25.33
2018-07-02T10:10:22.977Z,25.27
2018-07-02T10:12:28.501Z,25.05
2018-07-02T10:14:33.822Z,25.99
2018-07-02T10:16:39.140Z,25.23
2018-07-02T10:18:44.492Z,25.28
2018-07-02T10:20:49.866Z,25.26
2018-07-02T10:22:55.236Z,26.58
2018-07-02T10:25:00.560Z,25.04
2018-07-02T10:27:06.156Z,25.05
2018-07-02T10:29:11.590Z,25.17
2018-07-02T10:31:16.967Z,25.90
2018-07-02T10:33:22.363Z,24.92
2018-07-02T10:35:27.753Z,25.22
2018-07-02T10:37:33.099Z,25.81
2018-07-02T10:39:38.518Z,24.87
2018-07-02T10:41:43.871Z,24.70
2018-07-02T10:43:49.319Z,25.79
2018-07-02T10:45:54.648Z,24.59
2018-07-02T10:48:00.035Z,25.97
2018-07-02T10:50:05.473Z,24.63
2018-07-02T10:52:10.814Z,25.91
2018-07-02T10:54:16.185Z,24.49
2018-07-02T10:56:21.575Z,25.33
2018-07-02T10:58:26.902Z,24.96
2018-07-02T11:00:32.197Z,25.56
2018-07-02T11:02:37.592Z,25.62
2018-07-02T11:04:42.895Z,25.47
2018-07-02T11:06:48.219Z,24.79
2018-07-02T11:08:53.577Z,24.78
2018-07-02T11:10:58.911Z,24.37
2018-07-02T11:13:10.233Z,25.56
2018-07-02T11:15:15.580Z,24.77
2018-07-02T11:17:20.650Z,24.75
2018-07-02T11:19:25.945Z,24.72
2018-07-02T11:21:30.978Z,24.56
2018-07-02T11:23:36.252Z,24.52
2018-07-02T11:25:41.966Z,24.95
2018-07-02T11:27:47.282Z,24.64
2018-07-02T11:29:52.640Z,24.53
2018-07-02T11:31:58.112Z,24.06
2018-07-02T11:34:03.573Z,23.93
2018-07-02T11:36:08.925Z,23.72
2018-07-02T11:38:14.290Z,25.07
2018-07-02T11:40:19.757Z,24.00
2018-07-02T11:42:25.267Z,24.17
2018-07-02T11:44:31.960Z,23.99
2018-07-02T11:46:37.290Z,24.15
2018-07-02T11:48:43.029Z,24.72
2018-07-02T11:50:48.579Z,24.03
2018-07-02T11:52:54.366Z,23.87
2018-07-02T11:54:59.410Z,24.31
2018-07-02T11:57:04.724Z,24.46
2018-07-02T11:59:09.841Z,24.03
2018-07-02T12:01:15.131Z,23.85
2018-07-02T12:03:20.493Z,23.86
2018-07-02T12:05:25.906Z,23.56
2018-07-02T12:07:31.222Z,23.58
2018-07-02T12:09:36.700Z,23.69
2018-07-02T12:11:42.532Z,23.10
2018-07-02T12:13:47.889Z,23.23
2018-07-02T12:15:53.223Z,23.39
2018-07-02T12:17:58.571Z,23.53
2018-07-02T12:20:04.528Z,24.00
2018-07-02T12:22:09.894Z,22.83
2018-07-02T12:24:15.241Z,23.80
2018-07-02T12:26:20.557Z,23.09
2018-07-02T12:28:25.927Z,23.24
2018-07-02T12:30:31.346Z,22.87
2018-07-02T12:32:39.638Z,22.86
2018-07-02T12:34:45.200Z,22.41
2018-07-02T12:36:54.109Z,23.12
2018-07-02T12:38:59.432Z,23.75
2018-07-02T12:41:04.817Z,23.10
2018-07-02T12:43:10.218Z,22.80
2018-07-02T12:45:15.612Z,23.67
2018-07-02T12:47:20.997Z,23.67
2018-07-02T12:49:26.367Z,23.06
2018-07-02T12:51:31.812Z,23.29
2018-07-02T12:53:37.193Z,22.20
2018-07-02T12:55:42.488Z,23.38
2018-07-02T12:57:47.916Z,23.32
2018-07-02T12:59:53.239Z,23.36
2018-07-02T13:01:59.508Z,22.45
2018-07-02T13:04:04.957Z,23.24
2018-07-02T13:06:10.447Z,23.03
2018-07-02T13:08:15.950Z,22.89
2018-07-02T13:10:21.334Z,22.92
2018-07-02T13:12:26.620Z,22.05
2018-07-02T13:14:31.953Z,22.36
2018-07-02T13:16:37.674Z,23.15
2018-07-02T13:18:43.108Z,22.46
2018-07-02T13:20:48.515Z,22.84
2018-07-02T13:22:53.831Z,21.90
2018-07-02T13:24:59.175Z,22.32
2018-07-02T13:27:04.607Z,22.41
2018-07-02T13:29:10.090Z,22.15
2018-07-02T13:31:15.499Z,22.15
2018-07-02T13:33:20.901Z,21.94
2018-07-02T13:35:26.276Z,21.44
2018-07-02T13:37:31.661Z,21.44
2018-07-02T13:39:37.143Z,22.05
2018-07-02T13:41:42.593Z,21.38
2018-07-02T13:43:47.890Z,21.98
2018-07-02T13:45:53.283Z,21.64
2018-07-02T13:47:58.348Z,21.78
2018-07-02T13:50:03.689Z,21.92
2018-07-02T13:52:09.065Z,21.49
2018-07-02T13:54:14.562Z,21.02
2018-07-02T13:56:19.912Z,21.11
2018-07-02T13:58:25.380Z,21.44
2018-07-02T14:00:30.795Z,20.83
2018-07-02T14:02:36.194Z,21.65
2018-07-02T14:04:41.636Z,21.44
2018-07-02T14:06:47.061Z,21.95
2018-07-02T14:08:52.452Z,20.87
2018-07-02T14:10:57.784Z,21.27
2018-07-02T14:13:03.184Z,21.86
2018-07-02T14:15:09.613Z,20.93
2018-07-02T14:17:14.972Z,21.06
2018-07-02T14:19:20.378Z,21.16
2018-07-02T14:21:25.733Z,21.73
2018-07-02T14:23:31.181Z,20.74
2018-07-02T14:25:36.555Z,20.42
2018-07-02T14:27:41.880Z,21.55
2018-07-02T14:29:47.291Z,21.40
2018-07-02T14:31:52.641Z,21.50
2018-07-02T14:33:58.282Z,21.63
2018-07-02T14:36:04.028Z,20.48
2018-07-02T14:38:09.398Z,21.43
2018-07-02T14:40:14.760Z,20.88
2018-07-02T14:42:20.309Z,20.16
2018-07-02T14:44:25.740Z,20.58
2018-07-02T14:46:31.081Z,20.76
2018-07-02T14:48:36.393Z,20.34
2018-07-02T14:50:41.765Z,20.48
2018-07-02T14:52:47.189Z,20.84
2018-07-02T14:54:52.685Z,21.29
2018-07-02T14:56:58.269Z,20.92
2018-07-02T14:59:03.847Z,21.12
2018-07-02T15:01:09.372Z,21.00
2018-07-02T15:03:14.724Z,19.76
2018-07-02T15:05:19.755Z,20.51
2018-07-02T15:07:25.203Z,19.97
2018-07-02T15:09:30.712Z,20.20
2018-07-02T15:11:38.809Z,19.47
2018-07-02T15:13:44.171Z,20.14
2018-07-02T15:15:49.553Z,19.90
2018-07-02T15:17:54.951Z,19.41
2018-07-02T15:20:00.319Z,19.51
2018-07-02T15:22:05.746Z,20.24
2018-07-02T15:24:11.202Z,20.40
2018-07-02T15:26:16.592Z,20.07
2018-07-02T15:28:22.023Z,20.07
2018-07-02T15:30:27.440Z,19.00
2018-07-02T15:32:32.911Z,20.51
2018-07-02T15:34:38.273Z,20.33
2018-07-02T15:36:43.695Z,19.30
2018-07-02T15:38:49.064Z,19.88
2018-07-02T15:40:54.430Z,19.21
2018-07-02T15:42:59.776Z,19.31
2018-07-02T15:45:05.208Z,20.42
2018-07-02T15:47:10.660Z,19.15
2018-07-02T15:49:16.054Z,20.22
2018-07-02T15:51:21.579Z,20.31
2018-07-02T15:53:26.973Z,19.34
2018-07-02T15:55:32.468Z,19.99
2018-07-02T15:57:37.909Z,19.18
2018-07-02T15:59:43.321Z,20.25
2018-07-02T16:01:48.658Z,20.22
2018-07-02T16:03:53.981Z,19.05
2018-07-02T16:05:59.351Z,19.80
2018-07-02T16:08:04.855Z,20.12
2018-07-02T16:10:10.283Z,20.25
2018-07-02T16:12:15.990Z,19.71
2018-07-02T16:14:21.379Z,19.64
2018-07-02T16:16:26.733Z,19.53
2018-07-02T16:18:32.119Z,20.18
2018-07-02T16:20:37.512Z,19.83
2018-07-02T16:22:42.915Z,19.57
2018-07-02T16:24:48.283Z,20.43
2018-07-02T16:26:53.616Z,20.40
2018-07-02T16:28:59.006Z,20.71
2018-07-02T16:31:04.432Z,20.01
2018-07-02T16:33:10.032Z,20.54
2018-07-02T16:35:15.453Z,20.56
2018-07-02T16:37:20.967Z,20.53
2018-07-02T16:39:26.302Z,20.48
2018-07-02T16:41:31.732Z,19.64
2018-07-02T16:43:37.247Z,19.57
2018-07-02T16:45:42.649Z,20.55
2018-07-02T16:47:48.140Z,19.65
2018-07-02T16:49:53.495Z,19.86
2018-07-02T16:51:58.959Z,19.63
2018-07-02T16:54:04.660Z,20.39
2018-07-02T16:56:10.203Z,19.52
2018-07-02T16:58:15.645Z,19.56
2018-07-02T17:00:21.015Z,19.56
2018-07-02T17:02:26.467Z,20.03
2018-07-02T17:04:31.837Z,20.39
2018-07-02T17:06:37.294Z,20.19
2018-07-02T17:08:42.718Z,20.37
2018-07-02T17:10:48.172Z,19.54
2018-07-02T17:12:53.566Z,20.12
2018-07-02T17:14:58.976Z,20.28
2018-07-02T17:17:04.369Z,19.37
2018-07-02T17:19:09.774Z,20.10
2018-07-02T17:21:15.144Z,20.58
2018-07-02T17:23:20.561Z,19.71
2018-07-02T17:25:27.099Z,20.71
2018-07-02T17:27:32.429Z,19.87
2018-07-02T17:29:37.828Z,20.56
2018-07-02T17:31:43.250Z,20.27
2018-07-02T17:33:48.654Z,20.61
2018-07-02T17:35:53.975Z,20.41
2018-07-02T17:37:59.365Z,19.57
2018-07-02T17:40:05.213Z,20.25
2018-07-02T17:42:10.548Z,19.63
2018-07-02T17:44:15.916Z,20.29
2018-07-02T17:46:21.249Z,20.19
2018-07-02T17:48:26.703Z,20.20
2018-07-02T17:50:32.150Z,19.87
2018-07-02T17:52:37.562Z,20.57
2018-07-02T17:54:43.976Z,19.74
2018-07-02T17:56:49.425Z,20.09
2018-07-02T17:58:54.832Z,20.71
2018-07-02T18:00:59.910Z,19.72
2018-07-02T18:03:05.319Z,19.63
2018-07-02T18:05:10.364Z,19.81
2018-07-02T18:07:15.734Z,20.58
2018-07-02T18:09:21.109Z,19.72
2018-07-02T18:11:26.622Z,20.28
2018-07-02T18:13:32.014Z,20.22
2018-07-02T18:15:37.044Z,19.77
2018-07-02T18:17:42.724Z,20.95
2018-07-02T18:19:48.133Z,19.85
2018-07-02T18:21:53.622Z,20.48
2018-07-02T18:23:59.126Z,20.76
2018-07-02T18:26:04.559Z,20.12
2018-07-02T18:28:09.995Z,19.91
2018-07-02T18:30:15.429Z,20.87
2018-07-02T18:32:20.540Z,20.87
2018-07-02T18:34:28.421Z,20.75
2018-07-02T18:36:33.864Z,20.34
2018-07-02T18:38:39.248Z,20.69
2018-07-02T18:40:44.685Z,20.27
2018-07-02T18:42:50.114Z,20.70
2018-07-02T18:44:55.607Z,21.04
2018-07-02T18:47:03.478Z,20.83
2018-07-02T18:49:10.391Z,21.33
2018-07-02T18:51:15.748Z,21.13
2018-07-02T18:53:21.198Z,20.52
2018-07-02T18:55:26.689Z,20.39
2018-07-02T18:57:32.105Z,20.29
2018-07-02T18:59:37.521Z,20.31
2018-07-02T19:01:42.906Z,20.28
2018-07-02T19:03:48.351Z,20.40
2018-07-02T19:05:53.821Z,21.32
2018-07-02T19:07:59.269Z,20.52
2018-07-02T19:10:05.690Z,21.03
2018-07-02T19:12:11.156Z,20.68
2018-07-02T19:14:21.247Z,20.54
2018-07-02T19:16:27.380Z,20.94
2018-07-02T19:18:32.791Z,20.64
2018-07-02T19:20:38.310Z,21.08
2018-07-02T19:22:43.644Z,22.02
2018-07-02T19:24:49.015Z,21.03
2018-07-02T19:26:54.523Z,21.92
2018-07-02T19:29:00.004Z,21.98
2018-07-02T19:31:05.458Z,21.94
2018-07-02T19:33:10.817Z,21.89
2018-07-02T19:35:16.246Z,21.24
2018-07-02T19:37:21.593Z,21.61
2018-07-02T19:39:26.996Z,21.84
2018-07-02T19:41:32.413Z,21.08
2018-07-02T19:43:37.493Z,21.48
2018-07-02T19:45:42.818Z,21.87
2018-07-02T19:47:48.201Z,22.23
2018-07-02T19:49:53.773Z,22.03
2018-07-02T19:51:59.233Z,22.00
2018-07-02T19:54:05.083Z,22.40
2018-07-02T19:56:10.503Z,22.50
2018-07-02T19:58:15.930Z,21.38
2018-07-02T20:00:21.339Z,22.03
2018-07-02T20:02:26.724Z,21.56
2018-07-02T20:04:32.285Z,22.69
2018-07-02T20:06:37.746Z,21.85
2018-07-02T20:08:43.123Z,22.16
2018-07-02T20:10:49.252Z,22.38
2018-07-02T20:12:54.684Z,23.05
2018-07-02T20:15:00.112Z,22.78
2018-07-02T20:17:05.862Z,22.06
2018-07-02T20:19:11.338Z,22.17
2018-07-02T20:21:16.817Z,22.05
2018-07-02T20:23:22.365Z,23.39
2018-07-02T20:25:27.773Z,22.32
2018-07-02T20:27:34.190Z,22.46
2018-07-02T20:29:39.914Z,22.79
2018-07-02T20:31:45.376Z,23.19
2018-07-02T20:33:50.688Z,22.96
2018-07-02T20:35:55.710Z,23.18
2018-07-02T20:38:01.159Z,22.95
2018-07-02T20:40:06.552Z,23.02
2018-07-02T20:42:12.017Z,23.33
2018-07-02T20:44:17.365Z,23.43
2018-07-02T20:46:22.783Z,24.02
2018-07-02T20:48:28.432Z,24.30
2018-07-02T20:50:33.815Z,23.50
2018-07-02T20:52:39.206Z,23.62
2018-07-02T20:54:44.511Z,23.80
2018-07-02T20:56:49.902Z,24.04
2018-07-02T20:58:55.507Z,24.33
2018-07-02T21:01:01.157Z,24.04
2018-07-02T21:03:06.537Z,24.69
2018-07-02T21:05:12.090Z,25.62
2018-07-02T21:07:17.416Z,25.36
2018-07-02T21:09:22.785Z,25.06
2018-07-02T21:11:28.182Z,24.63
2018-07-02T21:13:33.695Z,24.61
2018-07-02T21:15:39.112Z,25.55
2018-07-02T21:17:44.419Z,25.17
2018-07-02T21:19:49.856Z,25.79
2018-07-02T21:21:55.201Z,25.07
2018-07-02T21:24:00.578Z,25.71
2018-07-02T21:26:06.150Z,25.40
2018-07-02T21:28:11.468Z,25.64
2018-07-02T21:30:16.808Z,25.00
2018-07-02T21:32:22.175Z,24.87
2018-07-02T21:34:27.526Z,25.65
2018-07-02T21:36:33.092Z,24.96
2018-07-02T21:38:38.496Z,24.87
2018-07-02T21:40:43.875Z,25.94
2018-07-02T21:42:49.218Z,25.85
2018-07-02T21:44:54.601Z,25.85
2018-07-02T21:47:00.025Z,26.07
2018-07-02T21:49:05.512Z,26.12
2018-07-02T21:51:10.874Z,25.32
2018-07-02T21:53:16.252Z,25.63
2018-07-02T21:55:21.652Z,26.25
2018-07-02T21:57:27.030Z,25.75
2018-07-02T21:59:32.430Z,26.41
2018-07-02T22:01:37.886Z,26.48
2018-07-02T22:03:43.225Z,25.74
2018-07-02T22:05:48.334Z,26.64
2018-07-02T22:07:53.659Z,26.25
2018-07-02T22:09:59.000Z,26.74
2018-07-02T22:12:04.673Z,26.82
2018-07-02T22:14:09.698Z,26.76
2018-07-02T22:16:14.967Z,26.15
2018-07-02T22:18:20.367Z,26.20
2018-07-02T22:20:25.661Z,27.13
2018-07-02T22:22:30.972Z,26.71
2018-07-02T22:24:37.145Z,26.78
2018-07-02T22:26:42.499Z,26.62
2018-07-02T22:28:47.802Z,27.57
2018-07-02T22:30:53.724Z,27.58
2018-07-02T22:32:59.053Z,27.65
2018-07-02T22:35:04.658Z,27.77
2018-07-02T22:37:10.109Z,27.86
2018-07-02T22:39:16.447Z,27.20
2018-07-02T22:41:21.828Z,28.19
2018-07-02T22:43:27.203Z,28.11
2018-07-02T22:45:33.341Z,27.39
2018-07-02T22:47:38.710Z,28.14
2018-07-02T22:49:44.069Z,27.48
2018-07-02T22:51:49.348Z,27.97
2018-07-02T22:53:54.694Z,27.50
2018-07-02T22:56:03.524Z,27.57
2018-07-02T22:58:08.796Z,28.07
2018-07-02T23:00:15.773Z,27.61
2018-07-02T23:02:21.098Z,28.55
2018-07-02T23:04:26.406Z,28.57
2018-07-02T23:06:31.700Z,28.69
2018-07-02T23:08:37.031Z,27.94
2018-07-02T23:10:42.495Z,28.68
2018-07-02T23:12:47.531Z,28.74
2018-07-02T23:14:52.781Z,28.14
2018-07-02T23:16:58.091Z,28.08
2018-07-02T23:19:03.391Z,29.01
2018-07-02T23:21:08.747Z,28.31
2018-07-02T23:23:14.083Z,28.48
2018-07-02T23:25:19.436Z,28.19
2018-07-02T23:27:24.759Z,28.91
2018-07-02T23:29:30.112Z,29.05
2018-07-02T23:31:35.483Z,28.22
2018-07-02T23:33:40.826Z,28.33
2018-07-02T23:35:46.143Z,29.01
2018-07-02T23:37:52.347Z,29.02
2018-07-02T23:39:57.717Z,29.15
2018-07-02T23:42:03.093Z,29.02
2018-07-02T23:44:08.423Z,28.41
2018-07-02T23:46:13.780Z,28.92
2018-07-02T23:48:19.123Z,28.49
2018-07-02T23:50:24.662Z,28.57
2018-07-02T23:52:30.015Z,28.68
2018-07-02T23:54:35.402Z,28.89
2018-07-02T23:56:40.793Z,28.84
2018-07-02T23:58:46.118Z,28.93
